sensor_id;sensor_type;location;lat;lon;timestamp;P1;durP1;ratioP1;P2;durP2;ratioP2
29430;SDS011;16404;49.902;10.074;2022-10-16T00:00:39;2.58;;;1.70;;
29430;SDS011;16404;49.902;10.074;2022-10-16T00:03:25;2.55;;;1.48;;
29430;SDS011;16404;49.902;10.074;2022-10-16T00:06:09;2.85;;;1.52;;
29430;SDS011;16404;49.902;10.074;2022-10-16T00:11:39;2.17;;;1.60;;
29430;SDS011;16404;49.902;10.074;2022-10-16T00:14:25;2.25;;;1.60;;
29430;SDS011;16404;49.902;10.074;2022-10-16T00:17:09;4.45;;;2.00;;
29430;SDS011;16404;49.902;10.074;2022-10-16T00:19:54;4.00;;;1.80;;
29430;SDS011;16404;49.902;10.074;2022-10-16T00:22:38;2.17;;;1.65;;
29430;SDS011;16404;49.902;10.074;2022-10-16T00:25:23;6.47;;;1.92;;
29430;SDS011;16404;49.902;10.074;2022-10-16T00:28:08;5.25;;;1.90;;
29430;SDS011;16404;49.902;10.074;2022-10-16T00:30:53;2.10;;;1.75;;
29430;SDS011;16404;49.902;10.074;2022-10-16T00:33:38;2.97;;;1.80;;
29430;SDS011;16404;49.902;10.074;2022-10-16T00:36:24;2.20;;;1.80;;
29430;SDS011;16404;49.902;10.074;2022-10-16T00:39:09;6.38;;;1.90;;
29430;SDS011;16404;49.902;10.074;2022-10-16T00:41:54;5.47;;;2.10;;
29430;SDS011;16404;49.902;10.074;2022-10-16T00:47:36;5.05;;;1.95;;
29430;SDS011;16404;49.902;10.074;2022-10-16T00:53:13;3.20;;;2.15;;
29430;SDS011;16404;49.902;10.074;2022-10-16T00:55:58;2.65;;;2.10;;
29430;SDS011;16404;49.902;10.074;2022-10-16T00:58:42;3.10;;;1.83;;
29430;SDS011;16404;49.902;10.074;2022-10-16T01:01:27;3.20;;;1.90;;
29430;SDS011;16404;49.902;10.074;2022-10-16T01:04:12;5.68;;;2.33;;
29430;SDS011;16404;49.902;10.074;2022-10-16T01:07:04;4.07;;;2.10;;
29430;SDS011;16404;49.902;10.074;2022-10-16T01:12:59;4.35;;;1.70;;
29430;SDS011;16404;49.902;10.074;2022-10-16T01:20:05;5.57;;;2.22;;
29430;SDS011;16404;49.902;10.074;2022-10-16T01:22:33;3.55;;;2.17;;
29430;SDS011;16404;49.902;10.074;2022-10-16T01:31:39;3.03;;;2.30;;
29430;SDS011;16404;49.902;10.074;2022-10-16T01:34:33;4.35;;;1.80;;
29430;SDS011;16404;49.902;10.074;2022-10-16T01:38:08;2.33;;;1.73;;
29430;SDS011;16404;49.902;10.074;2022-10-16T01:40:32;4.88;;;1.70;;
29430;SDS011;16404;49.902;10.074;2022-10-16T01:43:20;3.38;;;1.40;;
29430;SDS011;16404;49.902;10.074;2022-10-16T01:46:09;1.40;;;1.30;;
29430;SDS011;16404;49.902;10.074;2022-10-16T01:48:56;0.90;;;0.90;;
29430;SDS011;16404;49.902;10.074;2022-10-16T01:51:43;1.27;;;0.90;;
29430;SDS011;16404;49.902;10.074;2022-10-16T01:54:31;2.00;;;0.88;;
29430;SDS011;16404;49.902;10.074;2022-10-16T01:57:19;2.53;;;0.70;;
29430;SDS011;16404;49.902;10.074;2022-10-16T02:00:07;2.30;;;0.65;;
29430;SDS011;16404;49.902;10.074;2022-10-16T02:02:58;1.88;;;0.52;;
29430;SDS011;16404;49.902;10.074;2022-10-16T02:05:47;0.60;;;0.45;;
29430;SDS011;16404;49.902;10.074;2022-10-16T02:08:36;1.25;;;0.80;;
29430;SDS011;16404;49.902;10.074;2022-10-16T02:11:22;1.23;;;0.68;;
29430;SDS011;16404;49.902;10.074;2022-10-16T02:14:07;1.55;;;1.08;;
29430;SDS011;16404;49.902;10.074;2022-10-16T02:16:52;2.20;;;0.70;;
29430;SDS011;16404;49.902;10.074;2022-10-16T02:19:36;2.42;;;0.70;;
29430;SDS011;16404;49.902;10.074;2022-10-16T02:28:18;0.85;;;0.50;;
29430;SDS011;16404;49.902;10.074;2022-10-16T02:31:07;0.63;;;0.45;;
29430;SDS011;16404;49.902;10.074;2022-10-16T02:33:56;0.40;;;0.40;;
29430;SDS011;16404;49.902;10.074;2022-10-16T02:36:42;1.40;;;0.50;;
29430;SDS011;16404;49.902;10.074;2022-10-16T02:39:29;0.45;;;0.45;;
29430;SDS011;16404;49.902;10.074;2022-10-16T02:42:15;1.48;;;0.70;;
29430;SDS011;16404;49.902;10.074;2022-10-16T02:45:02;2.85;;;0.60;;
29430;SDS011;16404;49.902;10.074;2022-10-16T02:47:48;0.75;;;0.70;;
29430;SDS011;16404;49.902;10.074;2022-10-16T02:50:32;0.88;;;0.65;;
29430;SDS011;16404;49.902;10.074;2022-10-16T02:53:17;0.88;;;0.57;;
29430;SDS011;16404;49.902;10.074;2022-10-16T02:56:02;2.03;;;0.77;;
29430;SDS011;16404;49.902;10.074;2022-10-16T02:58:46;2.47;;;1.00;;
29430;SDS011;16404;49.902;10.074;2022-10-16T03:01:31;1.23;;;0.90;;
29430;SDS011;16404;49.902;10.074;2022-10-16T03:04:15;0.93;;;0.82;;
29430;SDS011;16404;49.902;10.074;2022-10-16T03:07:00;1.25;;;1.05;;
29430;SDS011;16404;49.902;10.074;2022-10-16T03:09:44;2.45;;;0.80;;
29430;SDS011;16404;49.902;10.074;2022-10-16T03:12:29;2.25;;;0.90;;
29430;SDS011;16404;49.902;10.074;2022-10-16T03:15:14;1.65;;;0.90;;
29430;SDS011;16404;49.902;10.074;2022-10-16T03:17:58;1.77;;;0.90;;
29430;SDS011;16404;49.902;10.074;2022-10-16T03:20:43;1.05;;;0.90;;
29430;SDS011;16404;49.902;10.074;2022-10-16T03:23:27;4.32;;;1.38;;
29430;SDS011;16404;49.902;10.074;2022-10-16T03:26:12;1.60;;;1.50;;
29430;SDS011;16404;49.902;10.074;2022-10-16T03:28:57;1.52;;;1.42;;
29430;SDS011;16404;49.902;10.074;2022-10-16T03:31:41;3.72;;;1.48;;
29430;SDS011;16404;49.902;10.074;2022-10-16T03:34:26;1.98;;;1.55;;
29430;SDS011;16404;49.902;10.074;2022-10-16T03:37:12;3.78;;;1.60;;
29430;SDS011;16404;49.902;10.074;2022-10-16T03:39:56;3.08;;;1.40;;
29430;SDS011;16404;49.902;10.074;2022-10-16T03:42:44;2.53;;;1.77;;
29430;SDS011;16404;49.902;10.074;2022-10-16T03:45:29;5.43;;;1.90;;
29430;SDS011;16404;49.902;10.074;2022-10-16T03:48:13;3.80;;;1.67;;
29430;SDS011;16404;49.902;10.074;2022-10-16T03:50:58;2.60;;;1.88;;
29430;SDS011;16404;49.902;10.074;2022-10-16T03:53:42;2.45;;;2.00;;
29430;SDS011;16404;49.902;10.074;2022-10-16T03:56:27;4.00;;;1.77;;
29430;SDS011;16404;49.902;10.074;2022-10-16T03:59:11;4.35;;;2.00;;
29430;SDS011;16404;49.902;10.074;2022-10-16T04:01:56;2.10;;;1.90;;
29430;SDS011;16404;49.902;10.074;2022-10-16T04:04:41;3.95;;;2.15;;
29430;SDS011;16404;49.902;10.074;2022-10-16T04:07:25;4.57;;;1.83;;
29430;SDS011;16404;49.902;10.074;2022-10-16T04:10:10;4.93;;;2.00;;
29430;SDS011;16404;49.902;10.074;2022-10-16T04:12:54;3.80;;;1.70;;
29430;SDS011;16404;49.902;10.074;2022-10-16T04:15:39;5.00;;;1.80;;
29430;SDS011;16404;49.902;10.074;2022-10-16T04:18:24;4.72;;;1.80;;
29430;SDS011;16404;49.902;10.074;2022-10-16T04:21:10;2.97;;;2.00;;
29430;SDS011;16404;49.902;10.074;2022-10-16T04:23:55;6.22;;;2.03;;
29430;SDS011;16404;49.902;10.074;2022-10-16T04:26:40;1.83;;;1.70;;
29430;SDS011;16404;49.902;10.074;2022-10-16T04:29:24;4.47;;;1.88;;
29430;SDS011;16404;49.902;10.074;2022-10-16T04:32:09;4.30;;;1.95;;
29430;SDS011;16404;49.902;10.074;2022-10-16T04:34:53;7.22;;;2.40;;
29430;SDS011;16404;49.902;10.074;2022-10-16T04:37:38;2.90;;;2.25;;
29430;SDS011;16404;49.902;10.074;2022-10-16T04:40:23;3.40;;;2.22;;
29430;SDS011;16404;49.902;10.074;2022-10-16T04:43:07;3.72;;;2.10;;
29430;SDS011;16404;49.902;10.074;2022-10-16T04:45:53;2.80;;;2.33;;
29430;SDS011;16404;49.902;10.074;2022-10-16T04:48:38;5.72;;;2.45;;
29430;SDS011;16404;49.902;10.074;2022-10-16T04:51:23;5.72;;;2.30;;
29430;SDS011;16404;49.902;10.074;2022-10-16T04:54:08;5.20;;;2.40;;
29430;SDS011;16404;49.902;10.074;2022-10-16T04:56:53;3.90;;;2.13;;
29430;SDS011;16404;49.902;10.074;2022-10-16T04:59:37;4.28;;;2.25;;
29430;SDS011;16404;49.902;10.074;2022-10-16T05:02:22;3.63;;;2.78;;
29430;SDS011;16404;49.902;10.074;2022-10-16T05:05:07;4.22;;;2.38;;
29430;SDS011;16404;49.902;10.074;2022-10-16T05:07:51;5.85;;;2.83;;
29430;SDS011;16404;49.902;10.074;2022-10-16T05:10:36;6.47;;;2.88;;
29430;SDS011;16404;49.902;10.074;2022-10-16T05:13:21;4.68;;;2.40;;
29430;SDS011;16404;49.902;10.074;2022-10-16T05:16:06;4.75;;;2.25;;
29430;SDS011;16404;49.902;10.074;2022-10-16T05:18:51;4.72;;;2.47;;
29430;SDS011;16404;49.902;10.074;2022-10-16T05:21:36;3.25;;;2.22;;
29430;SDS011;16404;49.902;10.074;2022-10-16T05:24:21;3.17;;;2.15;;
29430;SDS011;16404;49.902;10.074;2022-10-16T05:29:50;2.33;;;2.10;;
29430;SDS011;16404;49.902;10.074;2022-10-16T05:32:34;6.60;;;2.30;;
29430;SDS011;16404;49.902;10.074;2022-10-16T05:35:19;3.72;;;2.38;;
29430;SDS011;16404;49.902;10.074;2022-10-16T05:38:04;4.43;;;2.45;;
29430;SDS011;16404;49.902;10.074;2022-10-16T05:40:52;4.35;;;2.50;;
29430;SDS011;16404;49.902;10.074;2022-10-16T05:43:36;6.75;;;2.50;;
29430;SDS011;16404;49.902;10.074;2022-10-16T05:46:20;5.53;;;2.72;;
29430;SDS011;16404;49.902;10.074;2022-10-16T05:49:05;2.63;;;2.35;;
29430;SDS011;16404;49.902;10.074;2022-10-16T05:51:50;4.10;;;2.30;;
29430;SDS011;16404;49.902;10.074;2022-10-16T05:54:34;4.05;;;2.40;;
29430;SDS011;16404;49.902;10.074;2022-10-16T05:57:19;2.33;;;2.00;;
29430;SDS011;16404;49.902;10.074;2022-10-16T06:00:03;8.88;;;2.50;;
29430;SDS011;16404;49.902;10.074;2022-10-16T06:02:56;5.75;;;2.30;;
29430;SDS011;16404;49.902;10.074;2022-10-16T06:05:41;7.90;;;2.30;;
29430;SDS011;16404;49.902;10.074;2022-10-16T06:08:26;16.40;;;12.77;;
29430;SDS011;16404;49.902;10.074;2022-10-16T06:11:12;4.70;;;3.83;;
29430;SDS011;16404;49.902;10.074;2022-10-16T06:13:59;6.55;;;3.15;;
29430;SDS011;16404;49.902;10.074;2022-10-16T06:16:46;3.28;;;2.72;;
29430;SDS011;16404;49.902;10.074;2022-10-16T06:19:30;4.35;;;3.47;;
29430;SDS011;16404;49.902;10.074;2022-10-16T06:22:15;3.50;;;3.20;;
29430;SDS011;16404;49.902;10.074;2022-10-16T06:25:00;6.75;;;2.92;;
29430;SDS011;16404;49.902;10.074;2022-10-16T06:27:44;3.33;;;2.90;;
29430;SDS011;16404;49.902;10.074;2022-10-16T06:30:29;6.38;;;2.55;;
29430;SDS011;16404;49.902;10.074;2022-10-16T06:33:14;3.70;;;2.42;;
29430;SDS011;16404;49.902;10.074;2022-10-16T06:36:08;3.83;;;2.50;;
29430;SDS011;16404;49.902;10.074;2022-10-16T06:38:54;3.25;;;2.20;;
29430;SDS011;16404;49.902;10.074;2022-10-16T06:41:39;3.85;;;2.38;;
29430;SDS011;16404;49.902;10.074;2022-10-16T06:44:33;6.35;;;2.40;;
29430;SDS011;16404;49.902;10.074;2022-10-16T06:47:17;6.85;;;2.10;;
29430;SDS011;16404;49.902;10.074;2022-10-16T06:50:02;2.67;;;2.13;;
29430;SDS011;16404;49.902;10.074;2022-10-16T06:52:47;4.18;;;2.28;;
29430;SDS011;16404;49.902;10.074;2022-10-16T06:55:32;3.20;;;2.20;;
29430;SDS011;16404;49.902;10.074;2022-10-16T06:58:16;6.22;;;2.53;;
29430;SDS011;16404;49.902;10.074;2022-10-16T07:01:01;3.15;;;2.45;;
29430;SDS011;16404;49.902;10.074;2022-10-16T07:03:45;2.90;;;2.67;;
29430;SDS011;16404;49.902;10.074;2022-10-16T07:06:31;5.50;;;2.20;;
29430;SDS011;16404;49.902;10.074;2022-10-16T07:09:17;3.67;;;2.40;;
29430;SDS011;16404;49.902;10.074;2022-10-16T07:12:02;3.38;;;2.40;;
29430;SDS011;16404;49.902;10.074;2022-10-16T07:14:46;6.50;;;3.42;;
29430;SDS011;16404;49.902;10.074;2022-10-16T07:17:31;5.35;;;3.50;;
29430;SDS011;16404;49.902;10.074;2022-10-16T07:23:00;3.35;;;2.80;;
29430;SDS011;16404;49.902;10.074;2022-10-16T07:25:45;5.50;;;3.13;;
29430;SDS011;16404;49.902;10.074;2022-10-16T07:28:30;3.50;;;3.00;;
29430;SDS011;16404;49.902;10.074;2022-10-16T07:31:16;6.35;;;2.90;;
29430;SDS011;16404;49.902;10.074;2022-10-16T07:34:02;4.82;;;2.38;;
29430;SDS011;16404;49.902;10.074;2022-10-16T07:36:50;3.38;;;2.47;;
29430;SDS011;16404;49.902;10.074;2022-10-16T07:39:35;8.15;;;3.00;;
29430;SDS011;16404;49.902;10.074;2022-10-16T07:42:22;6.68;;;2.08;;
29430;SDS011;16404;49.902;10.074;2022-10-16T07:45:07;9.35;;;4.13;;
29430;SDS011;16404;49.902;10.074;2022-10-16T07:47:52;20.25;;;8.30;;
29430;SDS011;16404;49.902;10.074;2022-10-16T07:50:36;20.77;;;9.23;;
29430;SDS011;16404;49.902;10.074;2022-10-16T07:53:21;17.80;;;8.00;;
29430;SDS011;16404;49.902;10.074;2022-10-16T07:56:06;12.02;;;6.10;;
29430;SDS011;16404;49.902;10.074;2022-10-16T07:58:51;9.82;;;4.60;;
29430;SDS011;16404;49.902;10.074;2022-10-16T08:04:21;8.73;;;3.33;;
29430;SDS011;16404;49.902;10.074;2022-10-16T08:07:06;8.35;;;5.15;;
29430;SDS011;16404;49.902;10.074;2022-10-16T08:09:52;12.82;;;6.50;;
29430;SDS011;16404;49.902;10.074;2022-10-16T08:12:37;9.80;;;5.47;;
29430;SDS011;16404;49.902;10.074;2022-10-16T08:15:21;11.23;;;4.50;;
29430;SDS011;16404;49.902;10.074;2022-10-16T08:18:06;7.80;;;3.45;;
29430;SDS011;16404;49.902;10.074;2022-10-16T08:20:58;4.25;;;3.05;;
29430;SDS011;16404;49.902;10.074;2022-10-16T08:23:43;8.30;;;3.90;;
29430;SDS011;16404;49.902;10.074;2022-10-16T08:26:28;7.38;;;3.45;;
29430;SDS011;16404;49.902;10.074;2022-10-16T08:29:14;3.63;;;3.17;;
29430;SDS011;16404;49.902;10.074;2022-10-16T08:31:59;8.50;;;2.50;;
29430;SDS011;16404;49.902;10.074;2022-10-16T08:34:45;4.55;;;2.88;;
29430;SDS011;16404;49.902;10.074;2022-10-16T08:37:33;7.43;;;2.92;;
29430;SDS011;16404;49.902;10.074;2022-10-16T08:43:19;4.85;;;2.85;;
29430;SDS011;16404;49.902;10.074;2022-10-16T08:46:16;4.55;;;2.72;;
29430;SDS011;16404;49.902;10.074;2022-10-16T08:49:19;3.83;;;2.00;;
29430;SDS011;16404;49.902;10.074;2022-10-16T08:52:04;6.10;;;2.38;;
29430;SDS011;16404;49.902;10.074;2022-10-16T08:54:54;6.70;;;2.78;;
29430;SDS011;16404;49.902;10.074;2022-10-16T08:57:40;5.38;;;2.42;;
29430;SDS011;16404;49.902;10.074;2022-10-16T09:00:25;5.82;;;2.40;;
29430;SDS011;16404;49.902;10.074;2022-10-16T09:03:14;3.70;;;2.53;;
29430;SDS011;16404;49.902;10.074;2022-10-16T09:21:18;5.50;;;2.40;;
29430;SDS011;16404;49.902;10.074;2022-10-16T09:24:17;4.22;;;2.20;;
29430;SDS011;16404;49.902;10.074;2022-10-16T09:27:03;3.78;;;1.75;;
29430;SDS011;16404;49.902;10.074;2022-10-16T09:29:48;3.03;;;1.77;;
29430;SDS011;16404;49.902;10.074;2022-10-16T09:32:33;5.80;;;1.88;;
29430;SDS011;16404;49.902;10.074;2022-10-16T09:35:18;5.38;;;1.63;;
29430;SDS011;16404;49.902;10.074;2022-10-16T09:38:05;9.52;;;2.00;;
29430;SDS011;16404;49.902;10.074;2022-10-16T09:40:50;2.88;;;1.90;;
29430;SDS011;16404;49.902;10.074;2022-10-16T09:43:46;2.25;;;1.67;;
29430;SDS011;16404;49.902;10.074;2022-10-16T09:46:39;3.72;;;1.73;;
29430;SDS011;16404;49.902;10.074;2022-10-16T09:52:13;5.57;;;1.75;;
29430;SDS011;16404;49.902;10.074;2022-10-16T09:54:59;5.90;;;1.75;;
29430;SDS011;16404;49.902;10.074;2022-10-16T09:57:49;3.00;;;1.60;;
29430;SDS011;16404;49.902;10.074;2022-10-16T10:00:34;4.30;;;2.17;;
29430;SDS011;16404;49.902;10.074;2022-10-16T10:06:28;4.30;;;1.63;;
29430;SDS011;16404;49.902;10.074;2022-10-16T10:09:21;6.35;;;1.45;;
29430;SDS011;16404;49.902;10.074;2022-10-16T10:12:19;5.95;;;1.45;;
29430;SDS011;16404;49.902;10.074;2022-10-16T10:15:07;2.15;;;1.45;;
29430;SDS011;16404;49.902;10.074;2022-10-16T10:17:56;2.58;;;1.70;;
29430;SDS011;16404;49.902;10.074;2022-10-16T10:20:41;4.53;;;1.80;;
29430;SDS011;16404;49.902;10.074;2022-10-16T10:23:27;3.78;;;1.50;;
29430;SDS011;16404;49.902;10.074;2022-10-16T10:26:15;5.65;;;2.95;;
29430;SDS011;16404;49.902;10.074;2022-10-16T10:29:20;7.90;;;3.73;;
29430;SDS011;16404;49.902;10.074;2022-10-16T10:32:24;5.45;;;2.13;;
29430;SDS011;16404;49.902;10.074;2022-10-16T10:35:27;5.75;;;1.80;;
29430;SDS011;16404;49.902;10.074;2022-10-16T10:41:27;6.35;;;3.85;;
29430;SDS011;16404;49.902;10.074;2022-10-16T10:44:25;4.18;;;2.58;;
29430;SDS011;16404;49.902;10.074;2022-10-16T10:47:38;4.68;;;2.63;;
29430;SDS011;16404;49.902;10.074;2022-10-16T10:50:52;5.15;;;2.30;;
29430;SDS011;16404;49.902;10.074;2022-10-16T11:02:41;5.68;;;2.10;;
29430;SDS011;16404;49.902;10.074;2022-10-16T11:08:40;3.10;;;2.17;;
29430;SDS011;16404;49.902;10.074;2022-10-16T11:11:35;4.05;;;1.77;;
29430;SDS011;16404;49.902;10.074;2022-10-16T11:14:24;5.40;;;2.90;;
29430;SDS011;16404;49.902;10.074;2022-10-16T11:17:18;5.88;;;2.55;;
29430;SDS011;16404;49.902;10.074;2022-10-16T11:20:18;2.80;;;2.50;;
29430;SDS011;16404;49.902;10.074;2022-10-16T11:26:01;3.03;;;1.80;;
29430;SDS011;16404;49.902;10.074;2022-10-16T11:28:51;3.25;;;2.10;;
29430;SDS011;16404;49.902;10.074;2022-10-16T11:31:46;2.60;;;1.80;;
29430;SDS011;16404;49.902;10.074;2022-10-16T11:34:43;3.65;;;2.17;;
29430;SDS011;16404;49.902;10.074;2022-10-16T11:37:36;6.05;;;2.35;;
29430;SDS011;16404;49.902;10.074;2022-10-16T11:40:37;2.22;;;1.45;;
29430;SDS011;16404;49.902;10.074;2022-10-16T11:53:13;6.45;;;1.60;;
29430;SDS011;16404;49.902;10.074;2022-10-16T11:56:00;5.40;;;1.58;;
29430;SDS011;16404;49.902;10.074;2022-10-16T11:59:02;1.65;;;1.40;;
29430;SDS011;16404;49.902;10.074;2022-10-16T12:01:52;6.20;;;1.50;;
29430;SDS011;16404;49.902;10.074;2022-10-16T12:04:49;2.97;;;1.40;;
29430;SDS011;16404;49.902;10.074;2022-10-16T12:08:09;2.25;;;1.30;;
29430;SDS011;16404;49.902;10.074;2022-10-16T12:11:06;2.95;;;1.67;;
29430;SDS011;16404;49.902;10.074;2022-10-16T12:13:52;2.08;;;1.60;;
29430;SDS011;16404;49.902;10.074;2022-10-16T12:16:58;1.88;;;1.27;;
29430;SDS011;16404;49.902;10.074;2022-10-16T12:23:00;1.80;;;1.70;;
29430;SDS011;16404;49.902;10.074;2022-10-16T12:25:53;2.10;;;1.40;;
29430;SDS011;16404;49.902;10.074;2022-10-16T12:28:39;2.95;;;1.40;;
29430;SDS011;16404;49.902;10.074;2022-10-16T12:31:24;2.67;;;1.52;;
29430;SDS011;16404;49.902;10.074;2022-10-16T12:34:26;3.35;;;1.38;;
29430;SDS011;16404;49.902;10.074;2022-10-16T12:37:28;2.17;;;1.40;;
29430;SDS011;16404;49.902;10.074;2022-10-16T12:49:18;3.83;;;2.05;;
29430;SDS011;16404;49.902;10.074;2022-10-16T12:55:18;1.85;;;1.10;;
29430;SDS011;16404;49.902;10.074;2022-10-16T13:01:36;1.90;;;1.33;;
29430;SDS011;16404;49.902;10.074;2022-10-16T13:04:40;2.95;;;1.30;;
29430;SDS011;16404;49.902;10.074;2022-10-16T13:07:54;2.10;;;1.25;;
29430;SDS011;16404;49.902;10.074;2022-10-16T13:50:58;6.32;;;2.35;;
29430;SDS011;16404;49.902;10.074;2022-10-16T13:53:57;3.65;;;1.67;;
29430;SDS011;16404;49.902;10.074;2022-10-16T13:56:54;3.28;;;1.63;;
29430;SDS011;16404;49.902;10.074;2022-10-16T14:00:20;2.53;;;1.80;;
29430;SDS011;16404;49.902;10.074;2022-10-16T14:07:50;5.72;;;2.00;;
29430;SDS011;16404;49.902;10.074;2022-10-16T14:37:45;3.45;;;1.67;;
29430;SDS011;16404;49.902;10.074;2022-10-16T14:40:47;6.13;;;1.90;;
29430;SDS011;16404;49.902;10.074;2022-10-16T14:56:55;6.10;;;2.40;;
29430;SDS011;16404;49.902;10.074;2022-10-16T14:59:52;9.45;;;2.70;;
29430;SDS011;16404;49.902;10.074;2022-10-16T15:22:34;3.45;;;2.30;;
29430;SDS011;16404;49.902;10.074;2022-10-16T15:28:09;3.88;;;2.70;;
29430;SDS011;16404;49.902;10.074;2022-10-16T15:33:40;5.13;;;2.55;;
29430;SDS011;16404;49.902;10.074;2022-10-16T15:36:28;5.43;;;2.53;;
29430;SDS011;16404;49.902;10.074;2022-10-16T15:39:20;5.95;;;2.40;;
29430;SDS011;16404;49.902;10.074;2022-10-16T15:42:05;7.18;;;3.55;;
29430;SDS011;16404;49.902;10.074;2022-10-16T15:44:50;2.78;;;2.55;;
29430;SDS011;16404;49.902;10.074;2022-10-16T15:47:34;7.00;;;2.65;;
29430;SDS011;16404;49.902;10.074;2022-10-16T15:50:19;3.40;;;2.80;;
29430;SDS011;16404;49.902;10.074;2022-10-16T15:53:03;4.22;;;2.10;;
29430;SDS011;16404;49.902;10.074;2022-10-16T15:55:48;5.07;;;2.33;;
29430;SDS011;16404;49.902;10.074;2022-10-16T15:58:33;5.72;;;2.70;;
29430;SDS011;16404;49.902;10.074;2022-10-16T16:04:02;4.20;;;2.50;;
29430;SDS011;16404;49.902;10.074;2022-10-16T16:06:48;4.45;;;2.65;;
29430;SDS011;16404;49.902;10.074;2022-10-16T16:09:33;4.38;;;2.80;;
29430;SDS011;16404;49.902;10.074;2022-10-16T16:12:17;4.35;;;2.97;;
29430;SDS011;16404;49.902;10.074;2022-10-16T16:15:03;6.00;;;2.65;;
29430;SDS011;16404;49.902;10.074;2022-10-16T16:17:48;3.50;;;2.20;;
29430;SDS011;16404;49.902;10.074;2022-10-16T16:20:32;2.72;;;2.20;;
29430;SDS011;16404;49.902;10.074;2022-10-16T16:23:17;4.43;;;2.65;;
29430;SDS011;16404;49.902;10.074;2022-10-16T16:26:04;5.10;;;2.70;;
29430;SDS011;16404;49.902;10.074;2022-10-16T16:28:55;3.97;;;2.75;;
29430;SDS011;16404;49.902;10.074;2022-10-16T16:34:26;2.45;;;2.22;;
29430;SDS011;16404;49.902;10.074;2022-10-16T16:37:10;2.60;;;1.90;;
29430;SDS011;16404;49.902;10.074;2022-10-16T16:39:55;6.22;;;2.33;;
29430;SDS011;16404;49.902;10.074;2022-10-16T16:42:42;2.67;;;2.38;;
29430;SDS011;16404;49.902;10.074;2022-10-16T16:45:26;3.13;;;2.70;;
29430;SDS011;16404;49.902;10.074;2022-10-16T16:48:11;2.15;;;1.95;;
29430;SDS011;16404;49.902;10.074;2022-10-16T16:50:56;2.83;;;2.50;;
29430;SDS011;16404;49.902;10.074;2022-10-16T16:53:41;2.50;;;2.30;;
29430;SDS011;16404;49.902;10.074;2022-10-16T16:56:26;2.97;;;2.30;;
29430;SDS011;16404;49.902;10.074;2022-10-16T16:59:15;3.10;;;2.80;;
29430;SDS011;16404;49.902;10.074;2022-10-16T17:02:03;4.68;;;3.00;;
29430;SDS011;16404;49.902;10.074;2022-10-16T17:07:32;3.78;;;3.03;;
29430;SDS011;16404;49.902;10.074;2022-10-16T17:10:18;4.32;;;2.60;;
29430;SDS011;16404;49.902;10.074;2022-10-16T17:13:03;7.40;;;2.90;;
29430;SDS011;16404;49.902;10.074;2022-10-16T17:15:48;6.43;;;2.92;;
29430;SDS011;16404;49.902;10.074;2022-10-16T17:18:34;8.02;;;2.88;;
29430;SDS011;16404;49.902;10.074;2022-10-16T17:21:19;7.82;;;4.22;;
29430;SDS011;16404;49.902;10.074;2022-10-16T17:24:04;8.10;;;5.45;;
29430;SDS011;16404;49.902;10.074;2022-10-16T17:26:48;6.60;;;4.00;;
29430;SDS011;16404;49.902;10.074;2022-10-16T17:29:33;10.18;;;7.50;;
29430;SDS011;16404;49.902;10.074;2022-10-16T17:32:17;9.27;;;6.43;;
29430;SDS011;16404;49.902;10.074;2022-10-16T17:35:04;10.07;;;6.15;;
29430;SDS011;16404;49.902;10.074;2022-10-16T17:37:50;8.82;;;5.78;;
29430;SDS011;16404;49.902;10.074;2022-10-16T17:40:35;10.68;;;6.28;;
29430;SDS011;16404;49.902;10.074;2022-10-16T17:43:20;10.15;;;6.40;;
29430;SDS011;16404;49.902;10.074;2022-10-16T17:46:05;9.95;;;6.50;;
29430;SDS011;16404;49.902;10.074;2022-10-16T17:51:38;23.30;;;10.95;;
29430;SDS011;16404;49.902;10.074;2022-10-16T17:54:23;13.80;;;8.63;;
29430;SDS011;16404;49.902;10.074;2022-10-16T17:57:07;12.63;;;8.02;;
29430;SDS011;16404;49.902;10.074;2022-10-16T17:59:55;11.00;;;6.68;;
29430;SDS011;16404;49.902;10.074;2022-10-16T18:02:40;13.73;;;8.07;;
29430;SDS011;16404;49.902;10.074;2022-10-16T18:05:25;13.10;;;8.60;;
29430;SDS011;16404;49.902;10.074;2022-10-16T18:08:09;14.50;;;7.57;;
29430;SDS011;16404;49.902;10.074;2022-10-16T18:10:54;16.55;;;10.50;;
29430;SDS011;16404;49.902;10.074;2022-10-16T18:13:38;13.27;;;7.60;;
29430;SDS011;16404;49.902;10.074;2022-10-16T18:16:23;10.23;;;7.25;;
29430;SDS011;16404;49.902;10.074;2022-10-16T18:19:10;11.55;;;7.97;;
29430;SDS011;16404;49.902;10.074;2022-10-16T18:24:39;11.13;;;7.43;;
29430;SDS011;16404;49.902;10.074;2022-10-16T18:27:23;13.95;;;8.32;;
29430;SDS011;16404;49.902;10.074;2022-10-16T18:30:08;12.65;;;8.57;;
29430;SDS011;16404;49.902;10.074;2022-10-16T18:35:37;13.20;;;7.50;;
29430;SDS011;16404;49.902;10.074;2022-10-16T18:38:23;10.90;;;7.15;;
29430;SDS011;16404;49.902;10.074;2022-10-16T18:41:08;9.40;;;6.75;;
29430;SDS011;16404;49.902;10.074;2022-10-16T18:43:53;8.68;;;6.70;;
29430;SDS011;16404;49.902;10.074;2022-10-16T18:49:23;12.52;;;6.90;;
29430;SDS011;16404;49.902;10.074;2022-10-16T18:52:09;9.95;;;6.15;;
29430;SDS011;16404;49.902;10.074;2022-10-16T18:54:54;7.95;;;6.72;;
29430;SDS011;16404;49.902;10.074;2022-10-16T18:57:40;13.13;;;7.65;;
29430;SDS011;16404;49.902;10.074;2022-10-16T19:00:24;12.18;;;6.63;;
29430;SDS011;16404;49.902;10.074;2022-10-16T19:03:09;8.40;;;6.53;;
29430;SDS011;16404;49.902;10.074;2022-10-16T19:05:53;10.10;;;6.70;;
29430;SDS011;16404;49.902;10.074;2022-10-16T19:08:42;9.23;;;6.20;;
29430;SDS011;16404;49.902;10.074;2022-10-16T19:11:26;10.45;;;7.15;;
29430;SDS011;16404;49.902;10.074;2022-10-16T19:14:12;10.45;;;7.63;;
29430;SDS011;16404;49.902;10.074;2022-10-16T19:16:57;11.43;;;8.15;;
29430;SDS011;16404;49.902;10.074;2022-10-16T19:19:42;9.70;;;7.70;;
29430;SDS011;16404;49.902;10.074;2022-10-16T19:22:27;13.10;;;8.90;;
29430;SDS011;16404;49.902;10.074;2022-10-16T19:25:23;9.68;;;6.47;;
29430;SDS011;16404;49.902;10.074;2022-10-16T19:28:10;8.18;;;5.38;;
29430;SDS011;16404;49.902;10.074;2022-10-16T19:30:55;9.27;;;5.55;;
29430;SDS011;16404;49.902;10.074;2022-10-16T19:33:39;10.95;;;5.28;;
29430;SDS011;16404;49.902;10.074;2022-10-16T19:36:25;8.38;;;4.60;;
29430;SDS011;16404;49.902;10.074;2022-10-16T19:39:17;5.65;;;4.50;;
29430;SDS011;16404;49.902;10.074;2022-10-16T19:42:01;7.22;;;5.05;;
29430;SDS011;16404;49.902;10.074;2022-10-16T19:44:47;5.60;;;4.03;;
29430;SDS011;16404;49.902;10.074;2022-10-16T19:47:31;6.82;;;4.88;;
29430;SDS011;16404;49.902;10.074;2022-10-16T19:50:16;6.30;;;5.15;;
29430;SDS011;16404;49.902;10.074;2022-10-16T19:53:02;6.80;;;4.63;;
29430;SDS011;16404;49.902;10.074;2022-10-16T19:55:46;5.40;;;3.95;;
29430;SDS011;16404;49.902;10.074;2022-10-16T19:58:31;5.80;;;4.25;;
29430;SDS011;16404;49.902;10.074;2022-10-16T20:01:16;4.85;;;4.07;;
29430;SDS011;16404;49.902;10.074;2022-10-16T20:04:01;7.43;;;3.70;;
29430;SDS011;16404;49.902;10.074;2022-10-16T20:06:45;4.75;;;3.28;;
29430;SDS011;16404;49.902;10.074;2022-10-16T20:09:31;5.18;;;3.80;;
29430;SDS011;16404;49.902;10.074;2022-10-16T20:12:16;5.05;;;3.47;;
29430;SDS011;16404;49.902;10.074;2022-10-16T20:15:00;8.98;;;4.50;;
29430;SDS011;16404;49.902;10.074;2022-10-16T20:17:46;6.63;;;4.68;;
29430;SDS011;16404;49.902;10.074;2022-10-16T20:20:31;8.07;;;4.88;;
29430;SDS011;16404;49.902;10.074;2022-10-16T20:23:19;6.00;;;4.43;;
29430;SDS011;16404;49.902;10.074;2022-10-16T20:26:07;5.28;;;4.05;;
29430;SDS011;16404;49.902;10.074;2022-10-16T20:28:53;6.43;;;3.90;;